
<gpx xmlns="http://www.topografix.com/GPX/1/1" xmlns:gpxx="http://www.garmin.com/xmlschemas/GpxExtensions/v3" xmlns:xsi="http://www.w3.org/2001/XMLSchema-instance" version="1.1" creator="Adze - http://kobotsw.com/apps/adze" xsi:schemaLocation="http://www.topografix.com/GPX/1/1 http://www.topografix.com/GPX/1/1/gpx.xsd http://www.garmin.com/xmlschemas/GpxExtensions/v3 http://www.garmin.com/xmlschemas/GpxExtensionsv3.xsd">
    <metadata>
        <name>Untitled Document</name>
        <link href="http://www.garmin.com"></link>
        <time>2018-02-26T06:42:16.873Z</time>
    </metadata>
    <wpt lon="101.086987" lat="13.166680">
        <ele>116.000000</ele>
        <name>Firefly Chalet</name>
        <cmt>31-AUG-14 9:40:27</cmt>
        <desc>31-AUG-14 9:40:27</desc>
        <sym>Lodging</sym>
        <extensions>
            <gpxx:WaypointExtension xmlns:gpxx="http://www.garmin.com/xmlschemas/GpxExtensions/v3">
                <gpxx:DisplayMode>SymbolAndName</gpxx:DisplayMode>
            </gpxx:WaypointExtension>
        </extensions>
    </wpt>
    <wpt lon="101.078837" lat="13.141871">
        <ele>113.000000</ele>
        <name>Water Sun</name>
        <cmt>31-AUG-14 11:07:08</cmt>
        <desc>31-AUG-14 11:07:08</desc>
        <sym>Drinking Water</sym>
        <extensions>
            <gpxx:WaypointExtension xmlns:gpxx="http://www.garmin.com/xmlschemas/GpxExtensions/v3">
                <gpxx:DisplayMode>SymbolAndName</gpxx:DisplayMode>
            </gpxx:WaypointExtension>
        </extensions>
    </wpt>
    <trk>
        <name>Sunday</name>
        <extensions>
            <gpxx:TrackExtension xmlns:gpxx="http://www.garmin.com/xmlschemas/GpxExtensions/v3">
                <gpxx:DisplayColor>Green</gpxx:DisplayColor>
            </gpxx:TrackExtension>
        </extensions>
        <trkseg>
            <trkpt lon="101.087295" lat="13.167140">
                <ele>116.456787</ele>
                <time>2014-08-31T03:01:28Z</time>
            </trkpt>
            <trkpt lon="101.087319" lat="13.167395">
                <ele>113.092285</ele>
                <time>2014-08-31T03:01:35Z</time>
            </trkpt>
            <trkpt lon="101.087159" lat="13.167645">
                <ele>109.246948</ele>
                <time>2014-08-31T03:01:42Z</time>
            </trkpt>
            <trkpt lon="101.087203" lat="13.167839">
                <ele>107.805054</ele>
                <time>2014-08-31T03:01:47Z</time>
            </trkpt>
            <trkpt lon="101.087430" lat="13.168250">
                <ele>106.843628</ele>
                <time>2014-08-31T03:01:58Z</time>
            </trkpt>
            <trkpt lon="101.087705" lat="13.168243">
                <ele>105.401733</ele>
                <time>2014-08-31T03:02:08Z</time>
            </trkpt>
            <trkpt lon="101.087840" lat="13.168432">
                <ele>106.363037</ele>
                <time>2014-08-31T03:02:16Z</time>
            </trkpt>
            <trkpt lon="101.087905" lat="13.168820">
                <ele>108.285645</ele>
                <time>2014-08-31T03:02:30Z</time>
            </trkpt>
            <trkpt lon="101.087676" lat="13.168926">
                <ele>109.727661</ele>
                <time>2014-08-31T03:02:42Z</time>
            </trkpt>
            <trkpt lon="101.087085" lat="13.169042">
                <ele>108.766235</ele>
                <time>2014-08-31T03:03:00Z</time>
            </trkpt>
            <trkpt lon="101.086615" lat="13.169113">
                <ele>107.324341</ele>
                <time>2014-08-31T03:03:09Z</time>
            </trkpt>
            <trkpt lon="101.085312" lat="13.169233">
                <ele>104.440430</ele>
                <time>2014-08-31T03:03:29Z</time>
            </trkpt>
            <trkpt lon="101.084567" lat="13.169338">
                <ele>102.517700</ele>
                <time>2014-08-31T03:03:40Z</time>
            </trkpt>
            <trkpt lon="101.083609" lat="13.169213">
                <ele>101.556397</ele>
                <time>2014-08-31T03:03:55Z</time>
            </trkpt>
            <trkpt lon="101.082259" lat="13.168766">
                <ele>101.556397</ele>
                <time>2014-08-31T03:04:16Z</time>
            </trkpt>
            <trkpt lon="101.081569" lat="13.168252">
                <ele>102.037109</ele>
                <time>2014-08-31T03:04:28Z</time>
            </trkpt>
            <trkpt lon="101.080958" lat="13.167846">
                <ele>100.595093</ele>
                <time>2014-08-31T03:04:39Z</time>
            </trkpt>
            <trkpt lon="101.079513" lat="13.166683">
                <ele>93.865845</ele>
                <time>2014-08-31T03:05:02Z</time>
            </trkpt>
            <trkpt lon="101.078655" lat="13.166007">
                <ele>91.943237</ele>
                <time>2014-08-31T03:05:17Z</time>
            </trkpt>
            <trkpt lon="101.078384" lat="13.165834">
                <ele>90.981934</ele>
                <time>2014-08-31T03:05:22Z</time>
            </trkpt>
            <trkpt lon="101.077462" lat="13.165458">
                <ele>88.098022</ele>
                <time>2014-08-31T03:05:38Z</time>
            </trkpt>
            <trkpt lon="101.076805" lat="13.165210">
                <ele>91.943237</ele>
                <time>2014-08-31T03:05:51Z</time>
            </trkpt>
            <trkpt lon="101.076027" lat="13.165169">
                <ele>92.904541</ele>
                <time>2014-08-31T03:06:08Z</time>
            </trkpt>
            <trkpt lon="101.075930" lat="13.165172">
                <ele>92.904541</ele>
                <time>2014-08-31T03:06:10Z</time>
            </trkpt>
            <trkpt lon="101.074914" lat="13.165203">
                <ele>91.462524</ele>
                <time>2014-08-31T03:06:28Z</time>
            </trkpt>
            <trkpt lon="101.073720" lat="13.165279">
                <ele>89.539917</ele>
                <time>2014-08-31T03:06:49Z</time>
            </trkpt>
            <trkpt lon="101.073151" lat="13.165274">
                <ele>90.020630</ele>
                <time>2014-08-31T03:07:03Z</time>
            </trkpt>
            <trkpt lon="101.073065" lat="13.165271">
                <ele>90.020630</ele>
                <time>2014-08-31T03:07:05Z</time>
            </trkpt>
            <trkpt lon="101.072872" lat="13.165089">
                <ele>90.501343</ele>
                <time>2014-08-31T03:07:11Z</time>
            </trkpt>
            <trkpt lon="101.072787" lat="13.164896">
                <ele>90.020630</ele>
                <time>2014-08-31T03:07:15Z</time>
            </trkpt>
            <trkpt lon="101.072509" lat="13.164862">
                <ele>90.020630</ele>
                <time>2014-08-31T03:07:21Z</time>
            </trkpt>
            <trkpt lon="101.072351" lat="13.164988">
                <ele>90.501343</ele>
                <time>2014-08-31T03:07:25Z</time>
            </trkpt>
            <trkpt lon="101.071971" lat="13.165185">
                <ele>90.020630</ele>
                <time>2014-08-31T03:07:35Z</time>
            </trkpt>
            <trkpt lon="101.071243" lat="13.164913">
                <ele>89.539917</ele>
                <time>2014-08-31T03:07:50Z</time>
            </trkpt>
            <trkpt lon="101.070885" lat="13.164727">
                <ele>87.617188</ele>
                <time>2014-08-31T03:07:58Z</time>
            </trkpt>
            <trkpt lon="101.070522" lat="13.164715">
                <ele>86.175293</ele>
                <time>2014-08-31T03:08:05Z</time>
            </trkpt>
            <trkpt lon="101.070240" lat="13.164815">
                <ele>84.733398</ele>
                <time>2014-08-31T03:08:10Z</time>
            </trkpt>
            <trkpt lon="101.069383" lat="13.164886">
                <ele>85.694580</ele>
                <time>2014-08-31T03:08:25Z</time>
            </trkpt>
            <trkpt lon="101.069153" lat="13.164906">
                <ele>86.175293</ele>
                <time>2014-08-31T03:08:31Z</time>
            </trkpt>
            <trkpt lon="101.069106" lat="13.165046">
                <ele>87.136597</ele>
                <time>2014-08-31T03:08:38Z</time>
            </trkpt>
            <trkpt lon="101.069216" lat="13.165528">
                <ele>87.136597</ele>
                <time>2014-08-31T03:08:51Z</time>
            </trkpt>
            <trkpt lon="101.069560" lat="13.166347">
                <ele>87.617188</ele>
                <time>2014-08-31T03:09:11Z</time>
            </trkpt>
            <trkpt lon="101.069766" lat="13.166871">
                <ele>89.539917</ele>
                <time>2014-08-31T03:09:27Z</time>
            </trkpt>
            <trkpt lon="101.069994" lat="13.167271">
                <ele>91.462524</ele>
                <time>2014-08-31T03:09:45Z</time>
            </trkpt>
            <trkpt lon="101.070021" lat="13.167315">
                <ele>91.462524</ele>
                <time>2014-08-31T03:09:58Z</time>
            </trkpt>
            <trkpt lon="101.070009" lat="13.167316">
                <ele>91.943237</ele>
                <time>2014-08-31T03:10:19Z</time>
            </trkpt>
            <trkpt lon="101.070006" lat="13.167311">
                <ele>91.462524</ele>
                <time>2014-08-31T03:10:20Z</time>
            </trkpt>
            <trkpt lon="101.069852" lat="13.167086">
                <ele>90.501343</ele>
                <time>2014-08-31T03:10:33Z</time>
            </trkpt>
            <trkpt lon="101.069826" lat="13.167100">
                <ele>89.059326</ele>
                <time>2014-08-31T03:10:46Z</time>
            </trkpt>
            <trkpt lon="101.069832" lat="13.167063">
                <ele>90.981934</ele>
                <time>2014-08-31T03:11:54Z</time>
            </trkpt>
            <trkpt lon="101.069837" lat="13.167054">
                <ele>90.020630</ele>
                <time>2014-08-31T03:12:07Z</time>
            </trkpt>
            <trkpt lon="101.069762" lat="13.166793">
                <ele>90.020630</ele>
                <time>2014-08-31T03:12:23Z</time>
            </trkpt>
            <trkpt lon="101.069712" lat="13.166667">
                <ele>87.136597</ele>
                <time>2014-08-31T03:12:39Z</time>
            </trkpt>
            <trkpt lon="101.069481" lat="13.166136">
                <ele>88.098022</ele>
                <time>2014-08-31T03:12:56Z</time>
            </trkpt>
            <trkpt lon="101.069178" lat="13.165405">
                <ele>87.617188</ele>
                <time>2014-08-31T03:13:15Z</time>
            </trkpt>
            <trkpt lon="101.068365" lat="13.164154">
                <ele>88.098022</ele>
                <time>2014-08-31T03:14:52Z</time>
            </trkpt>
            <trkpt lon="101.068217" lat="13.164261">
                <ele>88.578735</ele>
                <time>2014-08-31T03:15:07Z</time>
            </trkpt>
            <trkpt lon="101.067925" lat="13.164273">
                <ele>89.539917</ele>
                <time>2014-08-31T03:15:21Z</time>
            </trkpt>
            <trkpt lon="101.067548" lat="13.164210">
                <ele>90.981934</ele>
                <time>2014-08-31T03:15:39Z</time>
            </trkpt>
            <trkpt lon="101.067145" lat="13.164109">
                <ele>92.423950</ele>
                <time>2014-08-31T03:16:00Z</time>
            </trkpt>
            <trkpt lon="101.066926" lat="13.164100">
                <ele>92.904541</ele>
                <time>2014-08-31T03:16:16Z</time>
            </trkpt>
            <trkpt lon="101.066423" lat="13.164058">
                <ele>92.423950</ele>
                <time>2014-08-31T03:16:34Z</time>
            </trkpt>
            <trkpt lon="101.066255" lat="13.164102">
                <ele>91.943237</ele>
                <time>2014-08-31T03:16:47Z</time>
            </trkpt>
            <trkpt lon="101.066238" lat="13.164108">
                <ele>92.423950</ele>
                <time>2014-08-31T03:16:52Z</time>
            </trkpt>
            <trkpt lon="101.066158" lat="13.164117">
                <ele>93.385132</ele>
                <time>2014-08-31T03:17:05Z</time>
            </trkpt>
            <trkpt lon="101.066079" lat="13.164131">
                <ele>92.904541</ele>
                <time>2014-08-31T03:17:21Z</time>
            </trkpt>
            <trkpt lon="101.065619" lat="13.164207">
                <ele>91.462524</ele>
                <time>2014-08-31T03:17:38Z</time>
            </trkpt>
            <trkpt lon="101.065173" lat="13.164211">
                <ele>90.020630</ele>
                <time>2014-08-31T03:17:51Z</time>
            </trkpt>
            <trkpt lon="101.064873" lat="13.164230">
                <ele>89.539917</ele>
                <time>2014-08-31T03:18:03Z</time>
            </trkpt>
            <trkpt lon="101.064888" lat="13.164545">
                <ele>90.020630</ele>
                <time>2014-08-31T03:18:14Z</time>
            </trkpt>
            <trkpt lon="101.064985" lat="13.165118">
                <ele>90.501343</ele>
                <time>2014-08-31T03:18:33Z</time>
            </trkpt>
            <trkpt lon="101.065011" lat="13.165415">
                <ele>90.981934</ele>
                <time>2014-08-31T03:18:48Z</time>
            </trkpt>
            <trkpt lon="101.064960" lat="13.165453">
                <ele>92.423950</ele>
                <time>2014-08-31T03:19:05Z</time>
            </trkpt>
            <trkpt lon="101.064944" lat="13.165456">
                <ele>92.423950</ele>
                <time>2014-08-31T03:19:07Z</time>
            </trkpt>
            <trkpt lon="101.064901" lat="13.165506">
                <ele>91.943237</ele>
                <time>2014-08-31T03:19:14Z</time>
            </trkpt>
            <trkpt lon="101.064586" lat="13.165635">
                <ele>90.981934</ele>
                <time>2014-08-31T03:19:27Z</time>
            </trkpt>
            <trkpt lon="101.064211" lat="13.165742">
                <ele>90.020630</ele>
                <time>2014-08-31T03:19:41Z</time>
            </trkpt>
            <trkpt lon="101.063670" lat="13.165898">
                <ele>90.501343</ele>
                <time>2014-08-31T03:20:01Z</time>
            </trkpt>
            <trkpt lon="101.063508" lat="13.165946">
                <ele>92.904541</ele>
                <time>2014-08-31T03:20:09Z</time>
            </trkpt>
            <trkpt lon="101.063510" lat="13.165992">
                <ele>93.865845</ele>
                <time>2014-08-31T03:20:12Z</time>
            </trkpt>
            <trkpt lon="101.063471" lat="13.166046">
                <ele>94.346558</ele>
                <time>2014-08-31T03:20:16Z</time>
            </trkpt>
            <trkpt lon="101.063090" lat="13.166238">
                <ele>95.307739</ele>
                <time>2014-08-31T03:20:35Z</time>
            </trkpt>
            <trkpt lon="101.062771" lat="13.166456">
                <ele>95.307739</ele>
                <time>2014-08-31T03:20:49Z</time>
            </trkpt>
            <trkpt lon="101.062407" lat="13.166848">
                <ele>96.269287</ele>
                <time>2014-08-31T03:21:07Z</time>
            </trkpt>
            <trkpt lon="101.062059" lat="13.166977">
                <ele>96.269287</ele>
                <time>2014-08-31T03:21:22Z</time>
            </trkpt>
            <trkpt lon="101.061756" lat="13.166709">
                <ele>94.346558</ele>
                <time>2014-08-31T03:21:35Z</time>
            </trkpt>
            <trkpt lon="101.061484" lat="13.166434">
                <ele>93.865845</ele>
                <time>2014-08-31T03:21:47Z</time>
            </trkpt>
            <trkpt lon="101.061113" lat="13.166017">
                <ele>93.865845</ele>
                <time>2014-08-31T03:22:04Z</time>
            </trkpt>
            <trkpt lon="101.060793" lat="13.165760">
                <ele>93.865845</ele>
                <time>2014-08-31T03:22:17Z</time>
            </trkpt>
            <trkpt lon="101.060471" lat="13.166017">
                <ele>94.827148</ele>
                <time>2014-08-31T03:22:31Z</time>
            </trkpt>
            <trkpt lon="101.060070" lat="13.166337">
                <ele>96.269287</ele>
                <time>2014-08-31T03:22:49Z</time>
            </trkpt>
            <trkpt lon="101.059780" lat="13.166550">
                <ele>97.230469</ele>
                <time>2014-08-31T03:23:03Z</time>
            </trkpt>
            <trkpt lon="101.059521" lat="13.166752">
                <ele>101.075684</ele>
                <time>2014-08-31T03:23:19Z</time>
            </trkpt>
            <trkpt lon="101.058897" lat="13.167232">
                <ele>103.959717</ele>
                <time>2014-08-31T03:23:51Z</time>
            </trkpt>
            <trkpt lon="101.058594" lat="13.167498">
                <ele>105.401733</ele>
                <time>2014-08-31T03:24:07Z</time>
            </trkpt>
            <trkpt lon="101.058388" lat="13.167641">
                <ele>106.363037</ele>
                <time>2014-08-31T03:24:17Z</time>
            </trkpt>
            <trkpt lon="101.058300" lat="13.167517">
                <ele>105.882446</ele>
                <time>2014-08-31T03:24:22Z</time>
            </trkpt>
            <trkpt lon="101.058072" lat="13.167010">
                <ele>104.440430</ele>
                <time>2014-08-31T03:24:38Z</time>
            </trkpt>
            <trkpt lon="101.057874" lat="13.166724">
                <ele>102.998291</ele>
                <time>2014-08-31T03:24:47Z</time>
            </trkpt>
            <trkpt lon="101.057815" lat="13.166584">
                <ele>102.037109</ele>
                <time>2014-08-31T03:24:53Z</time>
            </trkpt>
            <trkpt lon="101.057538" lat="13.166523">
                <ele>101.075684</ele>
                <time>2014-08-31T03:25:06Z</time>
            </trkpt>
            <trkpt lon="101.057260" lat="13.166225">
                <ele>98.191895</ele>
                <time>2014-08-31T03:25:18Z</time>
            </trkpt>
            <trkpt lon="101.057271" lat="13.165744">
                <ele>95.788452</ele>
                <time>2014-08-31T03:25:33Z</time>
            </trkpt>
            <trkpt lon="101.057248" lat="13.165274">
                <ele>94.827148</ele>
                <time>2014-08-31T03:25:45Z</time>
            </trkpt>
            <trkpt lon="101.057230" lat="13.165003">
                <ele>93.865845</ele>
                <time>2014-08-31T03:25:51Z</time>
            </trkpt>
            <trkpt lon="101.056855" lat="13.164578">
                <ele>91.943237</ele>
                <time>2014-08-31T03:26:05Z</time>
            </trkpt>
            <trkpt lon="101.056588" lat="13.164423">
                <ele>90.981934</ele>
                <time>2014-08-31T03:26:16Z</time>
            </trkpt>
            <trkpt lon="101.056480" lat="13.164203">
                <ele>90.020630</ele>
                <time>2014-08-31T03:26:22Z</time>
            </trkpt>
            <trkpt lon="101.056567" lat="13.164121">
                <ele>90.020630</ele>
                <time>2014-08-31T03:26:26Z</time>
            </trkpt>
            <trkpt lon="101.056766" lat="13.164049">
                <ele>90.020630</ele>
                <time>2014-08-31T03:26:31Z</time>
            </trkpt>
            <trkpt lon="101.056942" lat="13.163941">
                <ele>89.059326</ele>
                <time>2014-08-31T03:26:35Z</time>
            </trkpt>
            <trkpt lon="101.057559" lat="13.163699">
                <ele>86.175293</ele>
                <time>2014-08-31T03:26:47Z</time>
            </trkpt>
            <trkpt lon="101.057596" lat="13.163559">
                <ele>85.694580</ele>
                <time>2014-08-31T03:26:52Z</time>
            </trkpt>
            <trkpt lon="101.057185" lat="13.163026">
                <ele>85.694580</ele>
                <time>2014-08-31T03:27:10Z</time>
            </trkpt>
            <trkpt lon="101.056957" lat="13.162787">
                <ele>85.694580</ele>
                <time>2014-08-31T03:27:24Z</time>
            </trkpt>
            <trkpt lon="101.056762" lat="13.162519">
                <ele>85.694580</ele>
                <time>2014-08-31T03:27:37Z</time>
            </trkpt>
            <trkpt lon="101.056703" lat="13.162324">
                <ele>85.213989</ele>
                <time>2014-08-31T03:27:50Z</time>
            </trkpt>
            <trkpt lon="101.056708" lat="13.162311">
                <ele>85.213989</ele>
                <time>2014-08-31T03:27:52Z</time>
            </trkpt>
            <trkpt lon="101.056722" lat="13.162268">
                <ele>85.694580</ele>
                <time>2014-08-31T03:27:56Z</time>
            </trkpt>
            <trkpt lon="101.056726" lat="13.162247">
                <ele>85.694580</ele>
                <time>2014-08-31T03:28:03Z</time>
            </trkpt>
            <trkpt lon="101.056700" lat="13.162160">
                <ele>85.694580</ele>
                <time>2014-08-31T03:28:09Z</time>
            </trkpt>
            <trkpt lon="101.056817" lat="13.161881">
                <ele>88.098022</ele>
                <time>2014-08-31T03:28:26Z</time>
            </trkpt>
            <trkpt lon="101.056992" lat="13.161535">
                <ele>89.059326</ele>
                <time>2014-08-31T03:28:46Z</time>
            </trkpt>
            <trkpt lon="101.057141" lat="13.161246">
                <ele>89.539917</ele>
                <time>2014-08-31T03:29:01Z</time>
            </trkpt>
            <trkpt lon="101.057356" lat="13.160808">
                <ele>89.059326</ele>
                <time>2014-08-31T03:29:17Z</time>
            </trkpt>
            <trkpt lon="101.057642" lat="13.160282">
                <ele>89.059326</ele>
                <time>2014-08-31T03:29:33Z</time>
            </trkpt>
            <trkpt lon="101.057779" lat="13.159953">
                <ele>88.098022</ele>
                <time>2014-08-31T03:29:46Z</time>
            </trkpt>
            <trkpt lon="101.057794" lat="13.159942">
                <ele>88.098022</ele>
                <time>2014-08-31T03:29:53Z</time>
            </trkpt>
            <trkpt lon="101.057816" lat="13.159877">
                <ele>88.578735</ele>
                <time>2014-08-31T03:29:57Z</time>
            </trkpt>
            <trkpt lon="101.057711" lat="13.159582">
                <ele>88.098022</ele>
                <time>2014-08-31T03:30:12Z</time>
            </trkpt>
            <trkpt lon="101.057644" lat="13.159184">
                <ele>88.578735</ele>
                <time>2014-08-31T03:30:27Z</time>
            </trkpt>
            <trkpt lon="101.057582" lat="13.158925">
                <ele>90.020630</ele>
                <time>2014-08-31T03:30:40Z</time>
            </trkpt>
            <trkpt lon="101.057428" lat="13.158715">
                <ele>92.423950</ele>
                <time>2014-08-31T03:30:56Z</time>
            </trkpt>
            <trkpt lon="101.057195" lat="13.158451">
                <ele>93.385132</ele>
                <time>2014-08-31T03:31:14Z</time>
            </trkpt>
            <trkpt lon="101.056996" lat="13.158142">
                <ele>94.346558</ele>
                <time>2014-08-31T03:31:30Z</time>
            </trkpt>
            <trkpt lon="101.056792" lat="13.157697">
                <ele>95.788452</ele>
                <time>2014-08-31T03:31:51Z</time>
            </trkpt>
            <trkpt lon="101.056603" lat="13.157322">
                <ele>95.788452</ele>
                <time>2014-08-31T03:32:07Z</time>
            </trkpt>
            <trkpt lon="101.056434" lat="13.156890">
                <ele>93.865845</ele>
                <time>2014-08-31T03:32:23Z</time>
            </trkpt>
            <trkpt lon="101.056375" lat="13.156464">
                <ele>91.462524</ele>
                <time>2014-08-31T03:32:38Z</time>
            </trkpt>
            <trkpt lon="101.056106" lat="13.155673">
                <ele>87.136597</ele>
                <time>2014-08-31T03:32:59Z</time>
            </trkpt>
            <trkpt lon="101.055882" lat="13.155342">
                <ele>86.656006</ele>
                <time>2014-08-31T03:33:13Z</time>
            </trkpt>
            <trkpt lon="101.055552" lat="13.155249">
                <ele>85.213989</ele>
                <time>2014-08-31T03:33:27Z</time>
            </trkpt>
            <trkpt lon="101.055470" lat="13.154930">
                <ele>83.771973</ele>
                <time>2014-08-31T03:33:38Z</time>
            </trkpt>
            <trkpt lon="101.055476" lat="13.154501">
                <ele>82.810791</ele>
                <time>2014-08-31T03:33:50Z</time>
            </trkpt>
            <trkpt lon="101.055464" lat="13.153860">
                <ele>80.888184</ele>
                <time>2014-08-31T03:34:07Z</time>
            </trkpt>
            <trkpt lon="101.055380" lat="13.153249">
                <ele>78.004028</ele>
                <time>2014-08-31T03:34:24Z</time>
            </trkpt>
            <trkpt lon="101.055272" lat="13.152757">
                <ele>76.562134</ele>
                <time>2014-08-31T03:34:38Z</time>
            </trkpt>
            <trkpt lon="101.055137" lat="13.152200">
                <ele>75.120239</ele>
                <time>2014-08-31T03:34:53Z</time>
            </trkpt>
            <trkpt lon="101.055073" lat="13.151796">
                <ele>74.158813</ele>
                <time>2014-08-31T03:35:06Z</time>
            </trkpt>
            <trkpt lon="101.055338" lat="13.151583">
                <ele>75.120239</ele>
                <time>2014-08-31T03:35:17Z</time>
            </trkpt>
            <trkpt lon="101.055508" lat="13.151421">
                <ele>75.600830</ele>
                <time>2014-08-31T03:35:25Z</time>
            </trkpt>
            <trkpt lon="101.055410" lat="13.150987">
                <ele>71.755493</ele>
                <time>2014-08-31T03:35:39Z</time>
            </trkpt>
            <trkpt lon="101.055261" lat="13.150553">
                <ele>69.832886</ele>
                <time>2014-08-31T03:35:53Z</time>
            </trkpt>
            <trkpt lon="101.055363" lat="13.150114">
                <ele>68.871582</ele>
                <time>2014-08-31T03:36:06Z</time>
            </trkpt>
            <trkpt lon="101.055169" lat="13.149885">
                <ele>68.390869</ele>
                <time>2014-08-31T03:36:16Z</time>
            </trkpt>
            <trkpt lon="101.054964" lat="13.149474">
                <ele>69.352295</ele>
                <time>2014-08-31T03:36:29Z</time>
            </trkpt>
            <trkpt lon="101.055114" lat="13.149059">
                <ele>68.871582</ele>
                <time>2014-08-31T03:36:42Z</time>
            </trkpt>
            <trkpt lon="101.055049" lat="13.148844">
                <ele>67.910278</ele>
                <time>2014-08-31T03:36:47Z</time>
            </trkpt>
            <trkpt lon="101.054956" lat="13.148477">
                <ele>67.429688</ele>
                <time>2014-08-31T03:36:56Z</time>
            </trkpt>
            <trkpt lon="101.054902" lat="13.148359">
                <ele>67.429688</ele>
                <time>2014-08-31T03:36:59Z</time>
            </trkpt>
            <trkpt lon="101.054690" lat="13.147758">
                <ele>67.429688</ele>
                <time>2014-08-31T03:37:15Z</time>
            </trkpt>
            <trkpt lon="101.054777" lat="13.147407">
                <ele>66.948975</ele>
                <time>2014-08-31T03:37:28Z</time>
            </trkpt>
            <trkpt lon="101.054834" lat="13.147351">
                <ele>66.468262</ele>
                <time>2014-08-31T03:37:30Z</time>
            </trkpt>
            <trkpt lon="101.054897" lat="13.147239">
                <ele>66.468262</ele>
                <time>2014-08-31T03:37:33Z</time>
            </trkpt>
            <trkpt lon="101.054962" lat="13.146966">
                <ele>65.987671</ele>
                <time>2014-08-31T03:37:39Z</time>
            </trkpt>
            <trkpt lon="101.055149" lat="13.146050">
                <ele>65.987671</ele>
                <time>2014-08-31T03:37:57Z</time>
            </trkpt>
            <trkpt lon="101.055150" lat="13.144999">
                <ele>65.507080</ele>
                <time>2014-08-31T03:38:17Z</time>
            </trkpt>
            <trkpt lon="101.055136" lat="13.144743">
                <ele>65.507080</ele>
                <time>2014-08-31T03:38:23Z</time>
            </trkpt>
            <trkpt lon="101.055307" lat="13.144715">
                <ele>65.507080</ele>
                <time>2014-08-31T03:38:30Z</time>
            </trkpt>
            <trkpt lon="101.055882" lat="13.144940">
                <ele>67.429688</ele>
                <time>2014-08-31T03:38:49Z</time>
            </trkpt>
            <trkpt lon="101.056641" lat="13.145235">
                <ele>66.468262</ele>
                <time>2014-08-31T03:39:10Z</time>
            </trkpt>
            <trkpt lon="101.057431" lat="13.145546">
                <ele>68.871582</ele>
                <time>2014-08-31T03:39:30Z</time>
            </trkpt>
            <trkpt lon="101.058280" lat="13.145884">
                <ele>70.313477</ele>
                <time>2014-08-31T03:39:51Z</time>
            </trkpt>
            <trkpt lon="101.059155" lat="13.146225">
                <ele>71.755493</ele>
                <time>2014-08-31T03:40:13Z</time>
            </trkpt>
            <trkpt lon="101.060085" lat="13.146581">
                <ele>71.755493</ele>
                <time>2014-08-31T03:40:33Z</time>
            </trkpt>
            <trkpt lon="101.061027" lat="13.146978">
                <ele>71.274902</ele>
                <time>2014-08-31T03:40:52Z</time>
            </trkpt>
            <trkpt lon="101.061955" lat="13.147354">
                <ele>72.716919</ele>
                <time>2014-08-31T03:41:13Z</time>
            </trkpt>
            <trkpt lon="101.062848" lat="13.147695">
                <ele>72.236206</ele>
                <time>2014-08-31T03:41:36Z</time>
            </trkpt>
            <trkpt lon="101.063551" lat="13.147966">
                <ele>72.236206</ele>
                <time>2014-08-31T03:41:56Z</time>
            </trkpt>
            <trkpt lon="101.064321" lat="13.148279">
                <ele>76.081421</ele>
                <time>2014-08-31T03:42:17Z</time>
            </trkpt>
            <trkpt lon="101.065030" lat="13.148571">
                <ele>79.446045</ele>
                <time>2014-08-31T03:42:37Z</time>
            </trkpt>
            <trkpt lon="101.065734" lat="13.148839">
                <ele>81.849365</ele>
                <time>2014-08-31T03:42:56Z</time>
            </trkpt>
            <trkpt lon="101.066553" lat="13.149078">
                <ele>82.810791</ele>
                <time>2014-08-31T03:43:17Z</time>
            </trkpt>
            <trkpt lon="101.067420" lat="13.149273">
                <ele>83.771973</ele>
                <time>2014-08-31T03:43:38Z</time>
            </trkpt>
            <trkpt lon="101.067838" lat="13.149310">
                <ele>83.291382</ele>
                <time>2014-08-31T03:43:48Z</time>
            </trkpt>
            <trkpt lon="101.068400" lat="13.149374">
                <ele>84.252685</ele>
                <time>2014-08-31T03:44:03Z</time>
            </trkpt>
            <trkpt lon="101.068469" lat="13.149355">
                <ele>85.213989</ele>
                <time>2014-08-31T03:44:11Z</time>
            </trkpt>
            <trkpt lon="101.068449" lat="13.149290">
                <ele>85.694580</ele>
                <time>2014-08-31T03:44:15Z</time>
            </trkpt>
            <trkpt lon="101.068523" lat="13.148688">
                <ele>88.578735</ele>
                <time>2014-08-31T03:44:36Z</time>
            </trkpt>
            <trkpt lon="101.068540" lat="13.147928">
                <ele>90.981934</ele>
                <time>2014-08-31T03:44:56Z</time>
            </trkpt>
            <trkpt lon="101.068583" lat="13.147073">
                <ele>92.423950</ele>
                <time>2014-08-31T03:45:17Z</time>
            </trkpt>
            <trkpt lon="101.068659" lat="13.146518">
                <ele>94.346558</ele>
                <time>2014-08-31T03:45:34Z</time>
            </trkpt>
            <trkpt lon="101.068729" lat="13.145902">
                <ele>96.269287</ele>
                <time>2014-08-31T03:45:56Z</time>
            </trkpt>
            <trkpt lon="101.068707" lat="13.145149">
                <ele>98.672485</ele>
                <time>2014-08-31T03:46:21Z</time>
            </trkpt>
            <trkpt lon="101.068695" lat="13.144549">
                <ele>100.114502</ele>
                <time>2014-08-31T03:46:40Z</time>
            </trkpt>
            <trkpt lon="101.068699" lat="13.144431">
                <ele>100.595093</ele>
                <time>2014-08-31T03:46:44Z</time>
            </trkpt>
            <trkpt lon="101.068873" lat="13.144410">
                <ele>100.595093</ele>
                <time>2014-08-31T03:46:50Z</time>
            </trkpt>
            <trkpt lon="101.069573" lat="13.144668">
                <ele>100.595093</ele>
                <time>2014-08-31T03:47:08Z</time>
            </trkpt>
            <trkpt lon="101.069653" lat="13.144699">
                <ele>100.114502</ele>
                <time>2014-08-31T03:47:10Z</time>
            </trkpt>
            <trkpt lon="101.069786" lat="13.144799">
                <ele>100.595093</ele>
                <time>2014-08-31T03:47:14Z</time>
            </trkpt>
            <trkpt lon="101.070221" lat="13.145094">
                <ele>101.075684</ele>
                <time>2014-08-31T03:47:29Z</time>
            </trkpt>
            <trkpt lon="101.070532" lat="13.144891">
                <ele>102.517700</ele>
                <time>2014-08-31T03:47:40Z</time>
            </trkpt>
            <trkpt lon="101.070851" lat="13.144351">
                <ele>104.440430</ele>
                <time>2014-08-31T03:47:57Z</time>
            </trkpt>
            <trkpt lon="101.071511" lat="13.143818">
                <ele>105.882446</ele>
                <time>2014-08-31T03:48:19Z</time>
            </trkpt>
            <trkpt lon="101.072161" lat="13.143471">
                <ele>108.285645</ele>
                <time>2014-08-31T03:48:41Z</time>
            </trkpt>
            <trkpt lon="101.072700" lat="13.143358">
                <ele>110.688843</ele>
                <time>2014-08-31T03:49:01Z</time>
            </trkpt>
            <trkpt lon="101.073351" lat="13.143281">
                <ele>111.169556</ele>
                <time>2014-08-31T03:49:20Z</time>
            </trkpt>
            <trkpt lon="101.073885" lat="13.143035">
                <ele>113.572998</ele>
                <time>2014-08-31T03:49:36Z</time>
            </trkpt>
            <trkpt lon="101.074254" lat="13.142653">
                <ele>116.937500</ele>
                <time>2014-08-31T03:49:54Z</time>
            </trkpt>
            <trkpt lon="101.074554" lat="13.142115">
                <ele>118.379395</ele>
                <time>2014-08-31T03:50:15Z</time>
            </trkpt>
            <trkpt lon="101.074596" lat="13.141850">
                <ele>120.302124</ele>
                <time>2014-08-31T03:50:29Z</time>
            </trkpt>
            <trkpt lon="101.074634" lat="13.141646">
                <ele>122.705444</ele>
                <time>2014-08-31T03:50:45Z</time>
            </trkpt>
            <trkpt lon="101.074639" lat="13.141635">
                <ele>122.705444</ele>
                <time>2014-08-31T03:50:46Z</time>
            </trkpt>
            <trkpt lon="101.074683" lat="13.141448">
                <ele>123.666748</ele>
                <time>2014-08-31T03:51:05Z</time>
            </trkpt>
            <trkpt lon="101.074687" lat="13.141434">
                <ele>124.628052</ele>
                <time>2014-08-31T03:51:27Z</time>
            </trkpt>
            <trkpt lon="101.074717" lat="13.141436">
                <ele>126.069946</ele>
                <time>2014-08-31T03:51:45Z</time>
            </trkpt>
            <trkpt lon="101.074722" lat="13.141392">
                <ele>128.473389</ele>
                <time>2014-08-31T03:52:02Z</time>
            </trkpt>
            <trkpt lon="101.074739" lat="13.141327">
                <ele>128.954102</ele>
                <time>2014-08-31T03:52:51Z</time>
            </trkpt>
            <trkpt lon="101.074797" lat="13.141227">
                <ele>128.954102</ele>
                <time>2014-08-31T03:53:03Z</time>
            </trkpt>
            <trkpt lon="101.074854" lat="13.141186">
                <ele>129.915283</ele>
                <time>2014-08-31T03:53:10Z</time>
            </trkpt>
            <trkpt lon="101.075029" lat="13.141074">
                <ele>129.434692</ele>
                <time>2014-08-31T03:53:29Z</time>
            </trkpt>
            <trkpt lon="101.075075" lat="13.141052">
                <ele>129.434692</ele>
                <time>2014-08-31T03:53:34Z</time>
            </trkpt>
            <trkpt lon="101.075243" lat="13.140915">
                <ele>129.434692</ele>
                <time>2014-08-31T03:53:55Z</time>
            </trkpt>
            <trkpt lon="101.075362" lat="13.140783">
                <ele>130.395996</ele>
                <time>2014-08-31T03:54:15Z</time>
            </trkpt>
            <trkpt lon="101.075482" lat="13.140680">
                <ele>131.837891</ele>
                <time>2014-08-31T03:54:34Z</time>
            </trkpt>
            <trkpt lon="101.075589" lat="13.140569">
                <ele>132.799316</ele>
                <time>2014-08-31T03:54:52Z</time>
            </trkpt>
            <trkpt lon="101.075683" lat="13.140457">
                <ele>133.279907</ele>
                <time>2014-08-31T03:55:08Z</time>
            </trkpt>
            <trkpt lon="101.075827" lat="13.140332">
                <ele>135.202515</ele>
                <time>2014-08-31T03:55:29Z</time>
            </trkpt>
            <trkpt lon="101.075939" lat="13.140276">
                <ele>136.644653</ele>
                <time>2014-08-31T03:55:45Z</time>
            </trkpt>
            <trkpt lon="101.076150" lat="13.140191">
                <ele>138.086548</ele>
                <time>2014-08-31T03:55:59Z</time>
            </trkpt>
            <trkpt lon="101.076532" lat="13.140206">
                <ele>137.125244</ele>
                <time>2014-08-31T03:56:12Z</time>
            </trkpt>
            <trkpt lon="101.076943" lat="13.140050">
                <ele>130.876709</ele>
                <time>2014-08-31T03:56:27Z</time>
            </trkpt>
            <trkpt lon="101.077016" lat="13.139987">
                <ele>130.876709</ele>
                <time>2014-08-31T03:56:31Z</time>
            </trkpt>
            <trkpt lon="101.077190" lat="13.139589">
                <ele>133.760498</ele>
                <time>2014-08-31T03:56:47Z</time>
            </trkpt>
            <trkpt lon="101.077413" lat="13.139276">
                <ele>137.605835</ele>
                <time>2014-08-31T03:57:05Z</time>
            </trkpt>
            <trkpt lon="101.077732" lat="13.139088">
                <ele>137.605835</ele>
                <time>2014-08-31T03:57:20Z</time>
            </trkpt>
            <trkpt lon="101.078094" lat="13.139034">
                <ele>137.605835</ele>
                <time>2014-08-31T03:57:34Z</time>
            </trkpt>
            <trkpt lon="101.078283" lat="13.138887">
                <ele>138.086548</ele>
                <time>2014-08-31T03:57:51Z</time>
            </trkpt>
            <trkpt lon="101.078440" lat="13.138479">
                <ele>139.047852</ele>
                <time>2014-08-31T03:58:09Z</time>
            </trkpt>
            <trkpt lon="101.078659" lat="13.137902">
                <ele>137.605835</ele>
                <time>2014-08-31T03:58:28Z</time>
            </trkpt>
            <trkpt lon="101.078955" lat="13.137733">
                <ele>137.605835</ele>
                <time>2014-08-31T03:58:41Z</time>
            </trkpt>
            <trkpt lon="101.079373" lat="13.137784">
                <ele>135.683106</ele>
                <time>2014-08-31T03:58:57Z</time>
            </trkpt>
            <trkpt lon="101.079937" lat="13.138020">
                <ele>134.721924</ele>
                <time>2014-08-31T03:59:15Z</time>
            </trkpt>
            <trkpt lon="101.080264" lat="13.137797">
                <ele>134.721924</ele>
                <time>2014-08-31T03:59:26Z</time>
            </trkpt>
            <trkpt lon="101.080484" lat="13.137501">
                <ele>134.241211</ele>
                <time>2014-08-31T03:59:39Z</time>
            </trkpt>
            <trkpt lon="101.080547" lat="13.137130">
                <ele>135.683106</ele>
                <time>2014-08-31T03:59:54Z</time>
            </trkpt>
            <trkpt lon="101.080592" lat="13.136781">
                <ele>135.683106</ele>
                <time>2014-08-31T04:00:12Z</time>
            </trkpt>
            <trkpt lon="101.080635" lat="13.136500">
                <ele>138.086548</ele>
                <time>2014-08-31T04:00:31Z</time>
            </trkpt>
            <trkpt lon="101.080683" lat="13.136251">
                <ele>140.489868</ele>
                <time>2014-08-31T04:00:50Z</time>
            </trkpt>
            <trkpt lon="101.080784" lat="13.136011">
                <ele>141.931763</ele>
                <time>2014-08-31T04:01:07Z</time>
            </trkpt>
            <trkpt lon="101.080967" lat="13.135719">
                <ele>143.373657</ele>
                <time>2014-08-31T04:01:23Z</time>
            </trkpt>
            <trkpt lon="101.081209" lat="13.135363">
                <ele>142.412476</ele>
                <time>2014-08-31T04:01:40Z</time>
            </trkpt>
            <trkpt lon="101.081740" lat="13.135183">
                <ele>140.970459</ele>
                <time>2014-08-31T04:01:54Z</time>
            </trkpt>
            <trkpt lon="101.081979" lat="13.135035">
                <ele>140.489868</ele>
                <time>2014-08-31T04:02:04Z</time>
            </trkpt>
            <trkpt lon="101.082419" lat="13.134868">
                <ele>140.970459</ele>
                <time>2014-08-31T04:02:21Z</time>
            </trkpt>
            <trkpt lon="101.082864" lat="13.134492">
                <ele>142.412476</ele>
                <time>2014-08-31T04:02:39Z</time>
            </trkpt>
            <trkpt lon="101.083350" lat="13.134187">
                <ele>141.931763</ele>
                <time>2014-08-31T04:02:57Z</time>
            </trkpt>
            <trkpt lon="101.083869" lat="13.133616">
                <ele>139.047852</ele>
                <time>2014-08-31T04:03:12Z</time>
            </trkpt>
            <trkpt lon="101.083909" lat="13.133574">
                <ele>138.567261</ele>
                <time>2014-08-31T04:03:13Z</time>
            </trkpt>
            <trkpt lon="101.084226" lat="13.133484">
                <ele>137.605835</ele>
                <time>2014-08-31T04:03:19Z</time>
            </trkpt>
            <trkpt lon="101.084504" lat="13.133464">
                <ele>137.605835</ele>
                <time>2014-08-31T04:03:28Z</time>
            </trkpt>
            <trkpt lon="101.084891" lat="13.133189">
                <ele>138.086548</ele>
                <time>2014-08-31T04:03:40Z</time>
            </trkpt>
            <trkpt lon="101.085053" lat="13.133142">
                <ele>138.567261</ele>
                <time>2014-08-31T04:03:44Z</time>
            </trkpt>
            <trkpt lon="101.085241" lat="13.133147">
                <ele>139.528442</ele>
                <time>2014-08-31T04:03:49Z</time>
            </trkpt>
            <trkpt lon="101.085211" lat="13.133313">
                <ele>139.047852</ele>
                <time>2014-08-31T04:03:55Z</time>
            </trkpt>
            <trkpt lon="101.084664" lat="13.134061">
                <ele>138.567261</ele>
                <time>2014-08-31T04:04:15Z</time>
            </trkpt>
            <trkpt lon="101.084013" lat="13.134976">
                <ele>136.644653</ele>
                <time>2014-08-31T04:04:37Z</time>
            </trkpt>
            <trkpt lon="101.083474" lat="13.135885">
                <ele>133.760498</ele>
                <time>2014-08-31T04:04:56Z</time>
            </trkpt>
            <trkpt lon="101.082939" lat="13.137015">
                <ele>127.992554</ele>
                <time>2014-08-31T04:05:15Z</time>
            </trkpt>
            <trkpt lon="101.082522" lat="13.138090">
                <ele>125.108765</ele>
                <time>2014-08-31T04:05:31Z</time>
            </trkpt>
            <trkpt lon="101.082030" lat="13.139208">
                <ele>119.821411</ele>
                <time>2014-08-31T04:05:48Z</time>
            </trkpt>
            <trkpt lon="101.081296" lat="13.139935">
                <ele>115.495605</ele>
                <time>2014-08-31T04:06:01Z</time>
            </trkpt>
            <trkpt lon="101.080435" lat="13.140694">
                <ele>115.014893</ele>
                <time>2014-08-31T04:06:18Z</time>
            </trkpt>
            <trkpt lon="101.079750" lat="13.141270">
                <ele>114.534180</ele>
                <time>2014-08-31T04:06:35Z</time>
            </trkpt>
            <trkpt lon="101.079080" lat="13.141688">
                <ele>114.053589</ele>
                <time>2014-08-31T04:06:51Z</time>
            </trkpt>
            <trkpt lon="101.078837" lat="13.141871">
                <ele>113.092285</ele>
                <time>2014-08-31T04:07:04Z</time>
            </trkpt>
            <trkpt lon="101.078796" lat="13.141876">
                <ele>115.495605</ele>
                <time>2014-08-31T04:08:20Z</time>
            </trkpt>
            <trkpt lon="101.078719" lat="13.141959">
                <ele>113.572998</ele>
                <time>2014-08-31T04:08:34Z</time>
            </trkpt>
            <trkpt lon="101.078522" lat="13.142463">
                <ele>111.650269</ele>
                <time>2014-08-31T04:08:47Z</time>
            </trkpt>
            <trkpt lon="101.078314" lat="13.143498">
                <ele>107.805054</ele>
                <time>2014-08-31T04:09:05Z</time>
            </trkpt>
            <trkpt lon="101.078018" lat="13.144035">
                <ele>105.882446</ele>
                <time>2014-08-31T04:09:15Z</time>
            </trkpt>
            <trkpt lon="101.078116" lat="13.144134">
                <ele>106.363037</ele>
                <time>2014-08-31T04:09:24Z</time>
            </trkpt>
            <trkpt lon="101.078146" lat="13.144180">
                <ele>106.843628</ele>
                <time>2014-08-31T04:09:28Z</time>
            </trkpt>
            <trkpt lon="101.078314" lat="13.144396">
                <ele>107.324341</ele>
                <time>2014-08-31T04:09:45Z</time>
            </trkpt>
            <trkpt lon="101.078434" lat="13.144527">
                <ele>108.285645</ele>
                <time>2014-08-31T04:10:01Z</time>
            </trkpt>
            <trkpt lon="101.078469" lat="13.144565">
                <ele>108.766235</ele>
                <time>2014-08-31T04:10:17Z</time>
            </trkpt>
            <trkpt lon="101.078569" lat="13.144663">
                <ele>110.688843</ele>
                <time>2014-08-31T04:10:32Z</time>
            </trkpt>
            <trkpt lon="101.078692" lat="13.144755">
                <ele>112.611572</ele>
                <time>2014-08-31T04:10:49Z</time>
            </trkpt>
            <trkpt lon="101.078725" lat="13.144763">
                <ele>113.092285</ele>
                <time>2014-08-31T04:10:56Z</time>
            </trkpt>
            <trkpt lon="101.078838" lat="13.144775">
                <ele>115.495605</ele>
                <time>2014-08-31T04:11:11Z</time>
            </trkpt>
            <trkpt lon="101.079067" lat="13.144772">
                <ele>118.860107</ele>
                <time>2014-08-31T04:11:32Z</time>
            </trkpt>
            <trkpt lon="101.079138" lat="13.144761">
                <ele>119.340820</ele>
                <time>2014-08-31T04:11:48Z</time>
            </trkpt>
            <trkpt lon="101.079418" lat="13.144715">
                <ele>122.224731</ele>
                <time>2014-08-31T04:12:10Z</time>
            </trkpt>
            <trkpt lon="101.079445" lat="13.144714">
                <ele>122.705444</ele>
                <time>2014-08-31T04:12:12Z</time>
            </trkpt>
            <trkpt lon="101.079520" lat="13.144719">
                <ele>123.186157</ele>
                <time>2014-08-31T04:12:17Z</time>
            </trkpt>
            <trkpt lon="101.079826" lat="13.144661">
                <ele>125.589355</ele>
                <time>2014-08-31T04:12:37Z</time>
            </trkpt>
            <trkpt lon="101.079931" lat="13.144658">
                <ele>126.069946</ele>
                <time>2014-08-31T04:12:43Z</time>
            </trkpt>
            <trkpt lon="101.080044" lat="13.144635">
                <ele>126.069946</ele>
                <time>2014-08-31T04:12:49Z</time>
            </trkpt>
            <trkpt lon="101.080406" lat="13.144567">
                <ele>126.069946</ele>
                <time>2014-08-31T04:13:06Z</time>
            </trkpt>
            <trkpt lon="101.080588" lat="13.144546">
                <ele>127.511963</ele>
                <time>2014-08-31T04:13:18Z</time>
            </trkpt>
            <trkpt lon="101.080809" lat="13.144534">
                <ele>130.876709</ele>
                <time>2014-08-31T04:13:35Z</time>
            </trkpt>
            <trkpt lon="101.081063" lat="13.144512">
                <ele>131.357300</ele>
                <time>2014-08-31T04:13:53Z</time>
            </trkpt>
            <trkpt lon="101.081286" lat="13.144544">
                <ele>135.202515</ele>
                <time>2014-08-31T04:14:11Z</time>
            </trkpt>
            <trkpt lon="101.081462" lat="13.144681">
                <ele>136.644653</ele>
                <time>2014-08-31T04:14:29Z</time>
            </trkpt>
            <trkpt lon="101.081535" lat="13.144843">
                <ele>136.163940</ele>
                <time>2014-08-31T04:14:46Z</time>
            </trkpt>
            <trkpt lon="101.081628" lat="13.145034">
                <ele>137.125244</ele>
                <time>2014-08-31T04:15:05Z</time>
            </trkpt>
            <trkpt lon="101.081629" lat="13.145045">
                <ele>137.605835</ele>
                <time>2014-08-31T04:15:06Z</time>
            </trkpt>
            <trkpt lon="101.081647" lat="13.145086">
                <ele>138.086548</ele>
                <time>2014-08-31T04:15:10Z</time>
            </trkpt>
            <trkpt lon="101.081755" lat="13.145206">
                <ele>142.412476</ele>
                <time>2014-08-31T04:15:24Z</time>
            </trkpt>
            <trkpt lon="101.081909" lat="13.145363">
                <ele>141.931763</ele>
                <time>2014-08-31T04:15:40Z</time>
            </trkpt>
            <trkpt lon="101.082120" lat="13.145415">
                <ele>140.970459</ele>
                <time>2014-08-31T04:15:55Z</time>
            </trkpt>
            <trkpt lon="101.082391" lat="13.145360">
                <ele>139.528442</ele>
                <time>2014-08-31T04:16:11Z</time>
            </trkpt>
            <trkpt lon="101.082647" lat="13.145116">
                <ele>137.125244</ele>
                <time>2014-08-31T04:16:26Z</time>
            </trkpt>
            <trkpt lon="101.082960" lat="13.144757">
                <ele>136.163940</ele>
                <time>2014-08-31T04:16:44Z</time>
            </trkpt>
            <trkpt lon="101.083133" lat="13.144478">
                <ele>136.163940</ele>
                <time>2014-08-31T04:16:59Z</time>
            </trkpt>
            <trkpt lon="101.083174" lat="13.144251">
                <ele>137.125244</ele>
                <time>2014-08-31T04:17:11Z</time>
            </trkpt>
            <trkpt lon="101.083536" lat="13.144151">
                <ele>139.047852</ele>
                <time>2014-08-31T04:17:28Z</time>
            </trkpt>
            <trkpt lon="101.083934" lat="13.143973">
                <ele>141.451050</ele>
                <time>2014-08-31T04:17:47Z</time>
            </trkpt>
            <trkpt lon="101.084157" lat="13.143909">
                <ele>141.931763</ele>
                <time>2014-08-31T04:18:01Z</time>
            </trkpt>
            <trkpt lon="101.084383" lat="13.143882">
                <ele>142.893066</ele>
                <time>2014-08-31T04:18:17Z</time>
            </trkpt>
            <trkpt lon="101.084633" lat="13.143815">
                <ele>147.218994</ele>
                <time>2014-08-31T04:18:35Z</time>
            </trkpt>
            <trkpt lon="101.084910" lat="13.143778">
                <ele>149.622314</ele>
                <time>2014-08-31T04:18:54Z</time>
            </trkpt>
            <trkpt lon="101.085121" lat="13.143716">
                <ele>150.103027</ele>
                <time>2014-08-31T04:19:06Z</time>
            </trkpt>
            <trkpt lon="101.085176" lat="13.143748">
                <ele>149.622314</ele>
                <time>2014-08-31T04:19:11Z</time>
            </trkpt>
            <trkpt lon="101.085145" lat="13.143964">
                <ele>148.661011</ele>
                <time>2014-08-31T04:19:25Z</time>
            </trkpt>
            <trkpt lon="101.085148" lat="13.143966">
                <ele>148.180420</ele>
                <time>2014-08-31T04:19:46Z</time>
            </trkpt>
            <trkpt lon="101.085152" lat="13.143940">
                <ele>148.180420</ele>
                <time>2014-08-31T04:20:09Z</time>
            </trkpt>
            <trkpt lon="101.085171" lat="13.143775">
                <ele>147.218994</ele>
                <time>2014-08-31T04:20:23Z</time>
            </trkpt>
            <trkpt lon="101.085177" lat="13.143739">
                <ele>146.738403</ele>
                <time>2014-08-31T04:20:33Z</time>
            </trkpt>
            <trkpt lon="101.085423" lat="13.143526">
                <ele>145.296387</ele>
                <time>2014-08-31T04:20:46Z</time>
            </trkpt>
            <trkpt lon="101.085802" lat="13.143166">
                <ele>141.931763</ele>
                <time>2014-08-31T04:20:56Z</time>
            </trkpt>
            <trkpt lon="101.085935" lat="13.142920">
                <ele>142.412476</ele>
                <time>2014-08-31T04:21:02Z</time>
            </trkpt>
            <trkpt lon="101.086086" lat="13.142417">
                <ele>142.412476</ele>
                <time>2014-08-31T04:21:17Z</time>
            </trkpt>
            <trkpt lon="101.086367" lat="13.142288">
                <ele>142.893066</ele>
                <time>2014-08-31T04:21:27Z</time>
            </trkpt>
            <trkpt lon="101.086980" lat="13.142482">
                <ele>142.412476</ele>
                <time>2014-08-31T04:21:46Z</time>
            </trkpt>
            <trkpt lon="101.087315" lat="13.142322">
                <ele>142.412476</ele>
                <time>2014-08-31T04:21:58Z</time>
            </trkpt>
            <trkpt lon="101.087379" lat="13.141619">
                <ele>140.489868</ele>
                <time>2014-08-31T04:22:15Z</time>
            </trkpt>
            <trkpt lon="101.087385" lat="13.141518">
                <ele>140.009155</ele>
                <time>2014-08-31T04:22:17Z</time>
            </trkpt>
            <trkpt lon="101.087468" lat="13.141332">
                <ele>139.528442</ele>
                <time>2014-08-31T04:22:21Z</time>
            </trkpt>
            <trkpt lon="101.087709" lat="13.141154">
                <ele>139.047852</ele>
                <time>2014-08-31T04:22:27Z</time>
            </trkpt>
            <trkpt lon="101.088725" lat="13.140793">
                <ele>138.086548</ele>
                <time>2014-08-31T04:22:48Z</time>
            </trkpt>
            <trkpt lon="101.089678" lat="13.140467">
                <ele>136.644653</ele>
                <time>2014-08-31T04:23:08Z</time>
            </trkpt>
            <trkpt lon="101.090070" lat="13.140336">
                <ele>137.125244</ele>
                <time>2014-08-31T04:23:19Z</time>
            </trkpt>
            <trkpt lon="101.090141" lat="13.140391">
                <ele>138.086548</ele>
                <time>2014-08-31T04:23:22Z</time>
            </trkpt>
            <trkpt lon="101.090590" lat="13.140818">
                <ele>139.528442</ele>
                <time>2014-08-31T04:23:38Z</time>
            </trkpt>
            <trkpt lon="101.091158" lat="13.141207">
                <ele>141.451050</ele>
                <time>2014-08-31T04:23:56Z</time>
            </trkpt>
            <trkpt lon="101.091622" lat="13.141201">
                <ele>141.451050</ele>
                <time>2014-08-31T04:24:08Z</time>
            </trkpt>
            <trkpt lon="101.092193" lat="13.141499">
                <ele>142.412476</ele>
                <time>2014-08-31T04:24:24Z</time>
            </trkpt>
            <trkpt lon="101.092269" lat="13.141557">
                <ele>141.931763</ele>
                <time>2014-08-31T04:24:26Z</time>
            </trkpt>
            <trkpt lon="101.092582" lat="13.142203">
                <ele>140.489868</ele>
                <time>2014-08-31T04:24:40Z</time>
            </trkpt>
            <trkpt lon="101.092892" lat="13.142934">
                <ele>140.009155</ele>
                <time>2014-08-31T04:24:55Z</time>
            </trkpt>
            <trkpt lon="101.093144" lat="13.143458">
                <ele>140.970459</ele>
                <time>2014-08-31T04:25:10Z</time>
            </trkpt>
            <trkpt lon="101.093422" lat="13.143845">
                <ele>141.931763</ele>
                <time>2014-08-31T04:25:22Z</time>
            </trkpt>
            <trkpt lon="101.093810" lat="13.144642">
                <ele>142.893066</ele>
                <time>2014-08-31T04:25:42Z</time>
            </trkpt>
            <trkpt lon="101.094225" lat="13.145388">
                <ele>143.373657</ele>
                <time>2014-08-31T04:26:02Z</time>
            </trkpt>
            <trkpt lon="101.094613" lat="13.146240">
                <ele>145.296387</ele>
                <time>2014-08-31T04:26:24Z</time>
            </trkpt>
            <trkpt lon="101.094897" lat="13.146921">
                <ele>146.738403</ele>
                <time>2014-08-31T04:26:43Z</time>
            </trkpt>
            <trkpt lon="101.095247" lat="13.146968">
                <ele>145.777100</ele>
                <time>2014-08-31T04:26:52Z</time>
            </trkpt>
            <trkpt lon="101.096081" lat="13.146995">
                <ele>146.738403</ele>
                <time>2014-08-31T04:27:14Z</time>
            </trkpt>
            <trkpt lon="101.096460" lat="13.147051">
                <ele>147.218994</ele>
                <time>2014-08-31T04:27:25Z</time>
            </trkpt>
            <trkpt lon="101.096500" lat="13.147171">
                <ele>148.180420</ele>
                <time>2014-08-31T04:27:29Z</time>
            </trkpt>
            <trkpt lon="101.096553" lat="13.147673">
                <ele>149.622314</ele>
                <time>2014-08-31T04:27:45Z</time>
            </trkpt>
            <trkpt lon="101.096658" lat="13.148378">
                <ele>152.506348</ele>
                <time>2014-08-31T04:28:06Z</time>
            </trkpt>
            <trkpt lon="101.096751" lat="13.148961">
                <ele>154.428955</ele>
                <time>2014-08-31T04:28:24Z</time>
            </trkpt>
            <trkpt lon="101.096757" lat="13.149573">
                <ele>152.986939</ele>
                <time>2014-08-31T04:28:41Z</time>
            </trkpt>
            <trkpt lon="101.096805" lat="13.150461">
                <ele>152.986939</ele>
                <time>2014-08-31T04:29:04Z</time>
            </trkpt>
            <trkpt lon="101.097117" lat="13.151196">
                <ele>155.390259</ele>
                <time>2014-08-31T04:29:24Z</time>
            </trkpt>
            <trkpt lon="101.097432" lat="13.151433">
                <ele>157.312866</ele>
                <time>2014-08-31T04:29:35Z</time>
            </trkpt>
            <trkpt lon="101.098071" lat="13.151872">
                <ele>159.716186</ele>
                <time>2014-08-31T04:29:58Z</time>
            </trkpt>
            <trkpt lon="101.098786" lat="13.152094">
                <ele>156.832153</ele>
                <time>2014-08-31T04:30:20Z</time>
            </trkpt>
            <trkpt lon="101.099106" lat="13.152092">
                <ele>155.390259</ele>
                <time>2014-08-31T04:30:31Z</time>
            </trkpt>
            <trkpt lon="101.099128" lat="13.151929">
                <ele>154.909546</ele>
                <time>2014-08-31T04:30:38Z</time>
            </trkpt>
            <trkpt lon="101.098977" lat="13.151376">
                <ele>154.428955</ele>
                <time>2014-08-31T04:30:56Z</time>
            </trkpt>
            <trkpt lon="101.098914" lat="13.150984">
                <ele>153.467651</ele>
                <time>2014-08-31T04:31:07Z</time>
            </trkpt>
            <trkpt lon="101.099125" lat="13.150698">
                <ele>152.025757</ele>
                <time>2014-08-31T04:31:18Z</time>
            </trkpt>
            <trkpt lon="101.099678" lat="13.150709">
                <ele>150.583618</ele>
                <time>2014-08-31T04:31:37Z</time>
            </trkpt>
            <trkpt lon="101.099912" lat="13.150735">
                <ele>149.622314</ele>
                <time>2014-08-31T04:31:46Z</time>
            </trkpt>
            <trkpt lon="101.099984" lat="13.150708">
                <ele>148.661011</ele>
                <time>2014-08-31T04:32:01Z</time>
            </trkpt>
            <trkpt lon="101.099981" lat="13.150714">
                <ele>149.141602</ele>
                <time>2014-08-31T04:32:44Z</time>
            </trkpt>
            <trkpt lon="101.099955" lat="13.150730">
                <ele>149.141602</ele>
                <time>2014-08-31T04:33:04Z</time>
            </trkpt>
            <trkpt lon="101.099757" lat="13.150717">
                <ele>150.583618</ele>
                <time>2014-08-31T04:33:19Z</time>
            </trkpt>
            <trkpt lon="101.099602" lat="13.150707">
                <ele>151.544922</ele>
                <time>2014-08-31T04:33:28Z</time>
            </trkpt>
            <trkpt lon="101.099611" lat="13.150786">
                <ele>151.544922</ele>
                <time>2014-08-31T04:33:34Z</time>
            </trkpt>
            <trkpt lon="101.099840" lat="13.151090">
                <ele>152.506348</ele>
                <time>2014-08-31T04:33:51Z</time>
            </trkpt>
            <trkpt lon="101.100109" lat="13.151525">
                <ele>152.025757</ele>
                <time>2014-08-31T04:34:08Z</time>
            </trkpt>
            <trkpt lon="101.100165" lat="13.151566">
                <ele>152.506348</ele>
                <time>2014-08-31T04:34:13Z</time>
            </trkpt>
            <trkpt lon="101.100314" lat="13.151835">
                <ele>153.467651</ele>
                <time>2014-08-31T04:34:31Z</time>
            </trkpt>
            <trkpt lon="101.100527" lat="13.152272">
                <ele>155.390259</ele>
                <time>2014-08-31T04:34:52Z</time>
            </trkpt>
            <trkpt lon="101.100707" lat="13.152678">
                <ele>156.832153</ele>
                <time>2014-08-31T04:35:09Z</time>
            </trkpt>
            <trkpt lon="101.100928" lat="13.153153">
                <ele>158.274170</ele>
                <time>2014-08-31T04:35:29Z</time>
            </trkpt>
            <trkpt lon="101.101104" lat="13.153571">
                <ele>159.716186</ele>
                <time>2014-08-31T04:35:48Z</time>
            </trkpt>
            <trkpt lon="101.101254" lat="13.153870">
                <ele>162.119507</ele>
                <time>2014-08-31T04:36:07Z</time>
            </trkpt>
            <trkpt lon="101.101361" lat="13.154134">
                <ele>164.522705</ele>
                <time>2014-08-31T04:36:24Z</time>
            </trkpt>
            <trkpt lon="101.101457" lat="13.154340">
                <ele>165.964722</ele>
                <time>2014-08-31T04:36:40Z</time>
            </trkpt>
            <trkpt lon="101.101631" lat="13.154586">
                <ele>166.445312</ele>
                <time>2014-08-31T04:36:54Z</time>
            </trkpt>
            <trkpt lon="101.102034" lat="13.155151">
                <ele>167.887329</ele>
                <time>2014-08-31T04:37:18Z</time>
            </trkpt>
            <trkpt lon="101.102509" lat="13.155622">
                <ele>165.964722</ele>
                <time>2014-08-31T04:37:32Z</time>
            </trkpt>
            <trkpt lon="101.102520" lat="13.155641">
                <ele>165.484131</ele>
                <time>2014-08-31T04:37:33Z</time>
            </trkpt>
            <trkpt lon="101.102453" lat="13.155739">
                <ele>165.003418</ele>
                <time>2014-08-31T04:37:37Z</time>
            </trkpt>
            <trkpt lon="101.101836" lat="13.156264">
                <ele>161.158203</ele>
                <time>2014-08-31T04:37:52Z</time>
            </trkpt>
            <trkpt lon="101.101803" lat="13.156303">
                <ele>161.158203</ele>
                <time>2014-08-31T04:37:53Z</time>
            </trkpt>
            <trkpt lon="101.101818" lat="13.156539">
                <ele>160.196899</ele>
                <time>2014-08-31T04:37:59Z</time>
            </trkpt>
            <trkpt lon="101.101946" lat="13.156719">
                <ele>159.235474</ele>
                <time>2014-08-31T04:38:04Z</time>
            </trkpt>
            <trkpt lon="101.102296" lat="13.157383">
                <ele>156.832153</ele>
                <time>2014-08-31T04:38:19Z</time>
            </trkpt>
            <trkpt lon="101.102528" lat="13.157818">
                <ele>158.274170</ele>
                <time>2014-08-31T04:38:34Z</time>
            </trkpt>
            <trkpt lon="101.102793" lat="13.158308">
                <ele>160.196899</ele>
                <time>2014-08-31T04:38:54Z</time>
            </trkpt>
            <trkpt lon="101.103046" lat="13.158686">
                <ele>162.600098</ele>
                <time>2014-08-31T04:39:12Z</time>
            </trkpt>
            <trkpt lon="101.103503" lat="13.158896">
                <ele>165.003418</ele>
                <time>2014-08-31T04:39:31Z</time>
            </trkpt>
            <trkpt lon="101.103819" lat="13.159187">
                <ele>167.406738</ele>
                <time>2014-08-31T04:39:49Z</time>
            </trkpt>
            <trkpt lon="101.104149" lat="13.159612">
                <ele>168.848755</ele>
                <time>2014-08-31T04:40:12Z</time>
            </trkpt>
            <trkpt lon="101.104420" lat="13.160025">
                <ele>170.771362</ele>
                <time>2014-08-31T04:40:34Z</time>
            </trkpt>
            <trkpt lon="101.104541" lat="13.160516">
                <ele>171.252075</ele>
                <time>2014-08-31T04:40:51Z</time>
            </trkpt>
            <trkpt lon="101.104675" lat="13.161141">
                <ele>170.290649</ele>
                <time>2014-08-31T04:41:05Z</time>
            </trkpt>
            <trkpt lon="101.104826" lat="13.161657">
                <ele>171.732666</ele>
                <time>2014-08-31T04:41:16Z</time>
            </trkpt>
            <trkpt lon="101.105050" lat="13.162488">
                <ele>170.290649</ele>
                <time>2014-08-31T04:41:34Z</time>
            </trkpt>
            <trkpt lon="101.105226" lat="13.162973">
                <ele>172.693970</ele>
                <time>2014-08-31T04:41:51Z</time>
            </trkpt>
            <trkpt lon="101.105329" lat="13.163278">
                <ele>174.616577</ele>
                <time>2014-08-31T04:42:09Z</time>
            </trkpt>
            <trkpt lon="101.105415" lat="13.163570">
                <ele>175.577881</ele>
                <time>2014-08-31T04:42:27Z</time>
            </trkpt>
            <trkpt lon="101.105488" lat="13.163826">
                <ele>177.020019</ele>
                <time>2014-08-31T04:42:45Z</time>
            </trkpt>
            <trkpt lon="101.105571" lat="13.164223">
                <ele>179.903809</ele>
                <time>2014-08-31T04:43:04Z</time>
            </trkpt>
            <trkpt lon="101.105676" lat="13.164731">
                <ele>181.826416</ele>
                <time>2014-08-31T04:43:25Z</time>
            </trkpt>
            <trkpt lon="101.105769" lat="13.165199">
                <ele>184.229858</ele>
                <time>2014-08-31T04:43:45Z</time>
            </trkpt>
            <trkpt lon="101.105846" lat="13.165554">
                <ele>185.671753</ele>
                <time>2014-08-31T04:44:01Z</time>
            </trkpt>
            <trkpt lon="101.105737" lat="13.165979">
                <ele>187.594360</ele>
                <time>2014-08-31T04:44:19Z</time>
            </trkpt>
            <trkpt lon="101.105288" lat="13.166267">
                <ele>188.555786</ele>
                <time>2014-08-31T04:44:36Z</time>
            </trkpt>
            <trkpt lon="101.105249" lat="13.166275">
                <ele>188.555786</ele>
                <time>2014-08-31T04:44:37Z</time>
            </trkpt>
            <trkpt lon="101.104689" lat="13.166057">
                <ele>187.594360</ele>
                <time>2014-08-31T04:44:49Z</time>
            </trkpt>
            <trkpt lon="101.104316" lat="13.165636">
                <ele>186.633179</ele>
                <time>2014-08-31T04:45:00Z</time>
            </trkpt>
            <trkpt lon="101.103754" lat="13.164984">
                <ele>183.749023</ele>
                <time>2014-08-31T04:45:15Z</time>
            </trkpt>
            <trkpt lon="101.102949" lat="13.164432">
                <ele>180.384522</ele>
                <time>2014-08-31T04:45:32Z</time>
            </trkpt>
            <trkpt lon="101.101935" lat="13.163811">
                <ele>175.577881</ele>
                <time>2014-08-31T04:45:51Z</time>
            </trkpt>
            <trkpt lon="101.101400" lat="13.162985">
                <ele>172.213257</ele>
                <time>2014-08-31T04:46:09Z</time>
            </trkpt>
            <trkpt lon="101.100933" lat="13.161974">
                <ele>167.887329</ele>
                <time>2014-08-31T04:46:29Z</time>
            </trkpt>
            <trkpt lon="101.100722" lat="13.161531">
                <ele>165.964722</ele>
                <time>2014-08-31T04:46:38Z</time>
            </trkpt>
            <trkpt lon="101.100485" lat="13.161457">
                <ele>164.522705</ele>
                <time>2014-08-31T04:46:44Z</time>
            </trkpt>
            <trkpt lon="101.099681" lat="13.161696">
                <ele>163.561523</ele>
                <time>2014-08-31T04:46:58Z</time>
            </trkpt>
            <trkpt lon="101.099109" lat="13.161846">
                <ele>163.561523</ele>
                <time>2014-08-31T04:47:11Z</time>
            </trkpt>
            <trkpt lon="101.098725" lat="13.161906">
                <ele>166.445312</ele>
                <time>2014-08-31T04:47:23Z</time>
            </trkpt>
            <trkpt lon="101.098206" lat="13.161924">
                <ele>170.771362</ele>
                <time>2014-08-31T04:47:41Z</time>
            </trkpt>
            <trkpt lon="101.098146" lat="13.162048">
                <ele>170.771362</ele>
                <time>2014-08-31T04:47:46Z</time>
            </trkpt>
            <trkpt lon="101.098157" lat="13.162645">
                <ele>172.213257</ele>
                <time>2014-08-31T04:48:05Z</time>
            </trkpt>
            <trkpt lon="101.098027" lat="13.163184">
                <ele>171.252075</ele>
                <time>2014-08-31T04:48:23Z</time>
            </trkpt>
            <trkpt lon="101.097611" lat="13.163269">
                <ele>171.732666</ele>
                <time>2014-08-31T04:48:40Z</time>
            </trkpt>
            <trkpt lon="101.097228" lat="13.163332">
                <ele>173.655273</ele>
                <time>2014-08-31T04:49:00Z</time>
            </trkpt>
            <trkpt lon="101.096846" lat="13.163389">
                <ele>175.097290</ele>
                <time>2014-08-31T04:49:21Z</time>
            </trkpt>
            <trkpt lon="101.096478" lat="13.163507">
                <ele>177.020019</ele>
                <time>2014-08-31T04:49:39Z</time>
            </trkpt>
            <trkpt lon="101.096107" lat="13.163741">
                <ele>177.500610</ele>
                <time>2014-08-31T04:49:57Z</time>
            </trkpt>
            <trkpt lon="101.095533" lat="13.164047">
                <ele>179.423218</ele>
                <time>2014-08-31T04:50:19Z</time>
            </trkpt>
            <trkpt lon="101.095591" lat="13.163981">
                <ele>180.865234</ele>
                <time>2014-08-31T04:50:31Z</time>
            </trkpt>
            <trkpt lon="101.095581" lat="13.164076">
                <ele>180.384522</ele>
                <time>2014-08-31T04:50:45Z</time>
            </trkpt>
            <trkpt lon="101.095632" lat="13.164208">
                <ele>178.461914</ele>
                <time>2014-08-31T04:50:57Z</time>
            </trkpt>
            <trkpt lon="101.095674" lat="13.164389">
                <ele>179.423218</ele>
                <time>2014-08-31T04:51:14Z</time>
            </trkpt>
            <trkpt lon="101.095691" lat="13.164463">
                <ele>180.865234</ele>
                <time>2014-08-31T04:51:28Z</time>
            </trkpt>
            <trkpt lon="101.095644" lat="13.164249">
                <ele>178.942627</ele>
                <time>2014-08-31T04:51:41Z</time>
            </trkpt>
            <trkpt lon="101.095712" lat="13.164921">
                <ele>175.097290</ele>
                <time>2014-08-31T04:52:21Z</time>
            </trkpt>
            <trkpt lon="101.095656" lat="13.165119">
                <ele>172.213257</ele>
                <time>2014-08-31T04:52:37Z</time>
            </trkpt>
            <trkpt lon="101.095607" lat="13.165175">
                <ele>171.252075</ele>
                <time>2014-08-31T04:52:58Z</time>
            </trkpt>
            <trkpt lon="101.095630" lat="13.165237">
                <ele>172.213257</ele>
                <time>2014-08-31T04:53:27Z</time>
            </trkpt>
            <trkpt lon="101.095604" lat="13.165356">
                <ele>169.329468</ele>
                <time>2014-08-31T04:53:44Z</time>
            </trkpt>
            <trkpt lon="101.095594" lat="13.165374">
                <ele>168.368042</ele>
                <time>2014-08-31T04:53:49Z</time>
            </trkpt>
            <trkpt lon="101.095581" lat="13.165480">
                <ele>163.080811</ele>
                <time>2014-08-31T04:54:04Z</time>
            </trkpt>
            <trkpt lon="101.095532" lat="13.165639">
                <ele>160.677490</ele>
                <time>2014-08-31T04:54:23Z</time>
            </trkpt>
            <trkpt lon="101.095539" lat="13.165736">
                <ele>158.754761</ele>
                <time>2014-08-31T04:54:32Z</time>
            </trkpt>
            <trkpt lon="101.095486" lat="13.165901">
                <ele>155.390259</ele>
                <time>2014-08-31T04:54:48Z</time>
            </trkpt>
            <trkpt lon="101.095531" lat="13.166154">
                <ele>147.699707</ele>
                <time>2014-08-31T04:55:05Z</time>
            </trkpt>
            <trkpt lon="101.095470" lat="13.166427">
                <ele>144.815796</ele>
                <time>2014-08-31T04:55:23Z</time>
            </trkpt>
            <trkpt lon="101.095422" lat="13.166545">
                <ele>143.854370</ele>
                <time>2014-08-31T04:55:30Z</time>
            </trkpt>
            <trkpt lon="101.095341" lat="13.166612">
                <ele>142.893066</ele>
                <time>2014-08-31T04:55:35Z</time>
            </trkpt>
            <trkpt lon="101.095036" lat="13.166795">
                <ele>141.931763</ele>
                <time>2014-08-31T04:55:51Z</time>
            </trkpt>
            <trkpt lon="101.094904" lat="13.167041">
                <ele>139.047852</ele>
                <time>2014-08-31T04:56:08Z</time>
            </trkpt>
            <trkpt lon="101.094911" lat="13.167134">
                <ele>140.489868</ele>
                <time>2014-08-31T04:56:14Z</time>
            </trkpt>
            <trkpt lon="101.094670" lat="13.167312">
                <ele>140.489868</ele>
                <time>2014-08-31T04:56:31Z</time>
            </trkpt>
            <trkpt lon="101.094466" lat="13.167467">
                <ele>141.931763</ele>
                <time>2014-08-31T04:56:47Z</time>
            </trkpt>
            <trkpt lon="101.094291" lat="13.167660">
                <ele>141.931763</ele>
                <time>2014-08-31T04:57:03Z</time>
            </trkpt>
            <trkpt lon="101.094299" lat="13.167708">
                <ele>144.335205</ele>
                <time>2014-08-31T04:57:14Z</time>
            </trkpt>
            <trkpt lon="101.094123" lat="13.167865">
                <ele>144.335205</ele>
                <time>2014-08-31T04:57:33Z</time>
            </trkpt>
            <trkpt lon="101.094025" lat="13.167995">
                <ele>145.296387</ele>
                <time>2014-08-31T04:58:09Z</time>
            </trkpt>
            <trkpt lon="101.093875" lat="13.168167">
                <ele>148.180420</ele>
                <time>2014-08-31T04:58:27Z</time>
            </trkpt>
            <trkpt lon="101.093402" lat="13.168649">
                <ele>148.180420</ele>
                <time>2014-08-31T04:59:00Z</time>
            </trkpt>
            <trkpt lon="101.093325" lat="13.168732">
                <ele>147.218994</ele>
                <time>2014-08-31T04:59:18Z</time>
            </trkpt>
            <trkpt lon="101.093295" lat="13.168787">
                <ele>142.893066</ele>
                <time>2014-08-31T04:59:37Z</time>
            </trkpt>
            <trkpt lon="101.093293" lat="13.168804">
                <ele>140.009155</ele>
                <time>2014-08-31T05:00:07Z</time>
            </trkpt>
            <trkpt lon="101.093244" lat="13.168874">
                <ele>139.528442</ele>
                <time>2014-08-31T05:00:46Z</time>
            </trkpt>
            <trkpt lon="101.093058" lat="13.169161">
                <ele>138.567261</ele>
                <time>2014-08-31T05:01:03Z</time>
            </trkpt>
            <trkpt lon="101.092913" lat="13.169232">
                <ele>136.644653</ele>
                <time>2014-08-31T05:01:09Z</time>
            </trkpt>
            <trkpt lon="101.092747" lat="13.169186">
                <ele>138.086548</ele>
                <time>2014-08-31T05:01:15Z</time>
            </trkpt>
            <trkpt lon="101.092385" lat="13.168595">
                <ele>134.721924</ele>
                <time>2014-08-31T05:01:33Z</time>
            </trkpt>
            <trkpt lon="101.092072" lat="13.168019">
                <ele>133.279907</ele>
                <time>2014-08-31T05:01:47Z</time>
            </trkpt>
            <trkpt lon="101.091697" lat="13.167238">
                <ele>132.799316</ele>
                <time>2014-08-31T05:02:03Z</time>
            </trkpt>
            <trkpt lon="101.091409" lat="13.166775">
                <ele>131.357300</ele>
                <time>2014-08-31T05:02:15Z</time>
            </trkpt>
            <trkpt lon="101.090771" lat="13.166345">
                <ele>127.511963</ele>
                <time>2014-08-31T05:02:27Z</time>
            </trkpt>
            <trkpt lon="101.089800" lat="13.166242">
                <ele>123.186157</ele>
                <time>2014-08-31T05:02:41Z</time>
            </trkpt>
            <trkpt lon="101.089480" lat="13.166697">
                <ele>117.898804</ele>
                <time>2014-08-31T05:02:48Z</time>
            </trkpt>
            <trkpt lon="101.089410" lat="13.167208">
                <ele>113.572998</ele>
                <time>2014-08-31T05:02:54Z</time>
            </trkpt>
            <trkpt lon="101.089235" lat="13.167904">
                <ele>115.495605</ele>
                <time>2014-08-31T05:03:07Z</time>
            </trkpt>
            <trkpt lon="101.088813" lat="13.168412">
                <ele>109.727661</ele>
                <time>2014-08-31T05:03:21Z</time>
            </trkpt>
            <trkpt lon="101.088415" lat="13.168654">
                <ele>108.285645</ele>
                <time>2014-08-31T05:03:27Z</time>
            </trkpt>
            <trkpt lon="101.087980" lat="13.168822">
                <ele>110.688843</ele>
                <time>2014-08-31T05:03:36Z</time>
            </trkpt>
            <trkpt lon="101.087869" lat="13.168760">
                <ele>111.650269</ele>
                <time>2014-08-31T05:03:44Z</time>
            </trkpt>
            <trkpt lon="101.087800" lat="13.168766">
                <ele>111.169556</ele>
                <time>2014-08-31T05:03:50Z</time>
            </trkpt>
            <trkpt lon="101.087783" lat="13.168784">
                <ele>108.766235</ele>
                <time>2014-08-31T05:04:10Z</time>
            </trkpt>
            <trkpt lon="101.087807" lat="13.168764">
                <ele>110.208252</ele>
                <time>2014-08-31T05:08:53Z</time>
            </trkpt>
            <trkpt lon="101.087873" lat="13.168751">
                <ele>110.208252</ele>
                <time>2014-08-31T05:08:57Z</time>
            </trkpt>
            <trkpt lon="101.087901" lat="13.168728">
                <ele>108.766235</ele>
                <time>2014-08-31T05:09:05Z</time>
            </trkpt>
            <trkpt lon="101.087863" lat="13.168590">
                <ele>108.766235</ele>
                <time>2014-08-31T05:09:11Z</time>
            </trkpt>
            <trkpt lon="101.087891" lat="13.168370">
                <ele>108.285645</ele>
                <time>2014-08-31T05:09:17Z</time>
            </trkpt>
            <trkpt lon="101.087723" lat="13.168161">
                <ele>107.805054</ele>
                <time>2014-08-31T05:09:25Z</time>
            </trkpt>
            <trkpt lon="101.087524" lat="13.168214">
                <ele>108.285645</ele>
                <time>2014-08-31T05:09:31Z</time>
            </trkpt>
            <trkpt lon="101.087428" lat="13.168184">
                <ele>107.805054</ele>
                <time>2014-08-31T05:09:34Z</time>
            </trkpt>
            <trkpt lon="101.087202" lat="13.167883">
                <ele>105.882446</ele>
                <time>2014-08-31T05:09:47Z</time>
            </trkpt>
            <trkpt lon="101.087172" lat="13.167574">
                <ele>106.843628</ele>
                <time>2014-08-31T05:10:03Z</time>
            </trkpt>
            <trkpt lon="101.087199" lat="13.167534">
                <ele>108.285645</ele>
                <time>2014-08-31T05:10:07Z</time>
            </trkpt>
            <trkpt lon="101.087304" lat="13.167293">
                <ele>112.130981</ele>
                <time>2014-08-31T05:10:26Z</time>
            </trkpt>
            <trkpt lon="101.087256" lat="13.167028">
                <ele>114.053589</ele>
                <time>2014-08-31T05:10:44Z</time>
            </trkpt>
            <trkpt lon="101.087344" lat="13.166810">
                <ele>115.014893</ele>
                <time>2014-08-31T05:11:01Z</time>
            </trkpt>
        </trkseg>
    </trk>
</gpx>